Rhodhiss, North Carolina
Current Conditions -  °F | °C
As of 1:53 PM on Monday 20 Oct 2014 (Local Time) from KHKY Reporting Station
Clear Clear  
Wind Chill: 66°   Ceiling: Unl
Heat Index: 66°   Visibility: 10mi
Dew Point: 48°   Wind: 14mph
Humidity: 52%   Direction: 200°SSW
Pressure: 30.02"   Gusts: 21mph
Location:  35.77°N, 81.43°W
Report Text: KHKY 201753Z 20012G18KT 10SM CLR 19/09 A3002 RMK AO2 SLP153 T01890089 10189 20061 58031
Loading
Personal Weather Stations






























Interactive Weather Map New forecast layout! Learn more

10-Day Weather Forecast

Advertisements
Track Severe Weather on mobile